sensor_id;sensor_type;location;lat;lon;timestamp;P1;durP1;ratioP1;P2;durP2;ratioP2
63112;SDS011;49206;48.020;21.378;2022-12-16T00:00:50;51.80;;;23.02;;
63112;SDS011;49206;48.020;21.378;2022-12-16T00:01:53;48.92;;;22.85;;
63112;SDS011;49206;48.020;21.378;2022-12-16T00:02:57;51.42;;;21.35;;
63112;SDS011;49206;48.020;21.378;2022-12-16T00:04:02;54.58;;;22.55;;
63112;SDS011;49206;48.020;21.378;2022-12-16T00:05:05;51.40;;;21.65;;
63112;SDS011;49206;48.020;21.378;2022-12-16T00:06:08;52.45;;;22.55;;
63112;SDS011;49206;48.020;21.378;2022-12-16T00:07:11;51.10;;;22.30;;
63112;SDS011;49206;48.020;21.378;2022-12-16T00:08:14;52.80;;;21.08;;
63112;SDS011;49206;48.020;21.378;2022-12-16T00:09:17;53.05;;;23.85;;
63112;SDS011;49206;48.020;21.378;2022-12-16T00:10:19;51.30;;;22.88;;
63112;SDS011;49206;48.020;21.378;2022-12-16T00:11:22;50.95;;;22.60;;
63112;SDS011;49206;48.020;21.378;2022-12-16T00:12:25;54.03;;;24.45;;
63112;SDS011;49206;48.020;21.378;2022-12-16T00:13:28;58.08;;;22.27;;
63112;SDS011;49206;48.020;21.378;2022-12-16T00:14:34;62.00;;;25.15;;
63112;SDS011;49206;48.020;21.378;2022-12-16T00:15:36;48.03;;;22.25;;
63112;SDS011;49206;48.020;21.378;2022-12-16T00:16:39;51.88;;;23.30;;
63112;SDS011;49206;48.020;21.378;2022-12-16T00:17:41;50.85;;;22.75;;
63112;SDS011;49206;48.020;21.378;2022-12-16T00:18:44;52.40;;;24.08;;
63112;SDS011;49206;48.020;21.378;2022-12-16T00:19:47;58.80;;;23.73;;
63112;SDS011;49206;48.020;21.378;2022-12-16T00:20:53;50.67;;;21.08;;
63112;SDS011;49206;48.020;21.378;2022-12-16T00:21:56;50.22;;;22.85;;
63112;SDS011;49206;48.020;21.378;2022-12-16T00:22:58;59.08;;;22.67;;
63112;SDS011;49206;48.020;21.378;2022-12-16T00:24:01;46.30;;;23.77;;
63112;SDS011;49206;48.020;21.378;2022-12-16T00:25:03;56.03;;;23.65;;
63112;SDS011;49206;48.020;21.378;2022-12-16T00:26:06;57.83;;;23.02;;
63112;SDS011;49206;48.020;21.378;2022-12-16T00:27:09;60.33;;;24.63;;
63112;SDS011;49206;48.020;21.378;2022-12-16T00:28:12;58.20;;;24.08;;
63112;SDS011;49206;48.020;21.378;2022-12-16T00:29:16;53.35;;;23.98;;
63112;SDS011;49206;48.020;21.378;2022-12-16T00:30:18;50.70;;;24.00;;
63112;SDS011;49206;48.020;21.378;2022-12-16T00:31:21;60.00;;;25.27;;
63112;SDS011;49206;48.020;21.378;2022-12-16T00:32:23;64.95;;;25.20;;
63112;SDS011;49206;48.020;21.378;2022-12-16T00:33:26;50.55;;;24.05;;
63112;SDS011;49206;48.020;21.378;2022-12-16T00:34:28;57.70;;;24.30;;
63112;SDS011;49206;48.020;21.378;2022-12-16T00:35:31;48.58;;;21.42;;
63112;SDS011;49206;48.020;21.378;2022-12-16T00:36:34;53.33;;;22.95;;
63112;SDS011;49206;48.020;21.378;2022-12-16T00:37:37;53.85;;;25.50;;
63112;SDS011;49206;48.020;21.378;2022-12-16T00:38:39;47.25;;;21.65;;
63112;SDS011;49206;48.020;21.378;2022-12-16T00:39:41;49.95;;;24.73;;
63112;SDS011;49206;48.020;21.378;2022-12-16T00:40:43;48.83;;;22.48;;
63112;SDS011;49206;48.020;21.378;2022-12-16T00:41:46;54.92;;;23.30;;
63112;SDS011;49206;48.020;21.378;2022-12-16T00:42:48;51.72;;;22.88;;
63112;SDS011;49206;48.020;21.378;2022-12-16T00:43:52;47.88;;;20.77;;
63112;SDS011;49206;48.020;21.378;2022-12-16T00:44:55;52.42;;;22.45;;
63112;SDS011;49206;48.020;21.378;2022-12-16T00:45:57;49.05;;;22.02;;
63112;SDS011;49206;48.020;21.378;2022-12-16T00:47:00;51.72;;;22.75;;
63112;SDS011;49206;48.020;21.378;2022-12-16T00:48:02;51.55;;;22.88;;
63112;SDS011;49206;48.020;21.378;2022-12-16T00:49:05;45.25;;;20.52;;
63112;SDS011;49206;48.020;21.378;2022-12-16T00:50:07;46.88;;;20.35;;
63112;SDS011;49206;48.020;21.378;2022-12-16T00:51:10;48.53;;;21.65;;
63112;SDS011;49206;48.020;21.378;2022-12-16T00:52:12;53.30;;;22.73;;
63112;SDS011;49206;48.020;21.378;2022-12-16T00:53:15;46.33;;;22.73;;
63112;SDS011;49206;48.020;21.378;2022-12-16T00:54:18;53.72;;;23.33;;
63112;SDS011;49206;48.020;21.378;2022-12-16T00:55:20;48.78;;;22.75;;
63112;SDS011;49206;48.020;21.378;2022-12-16T00:56:23;48.95;;;21.33;;
63112;SDS011;49206;48.020;21.378;2022-12-16T00:57:26;48.63;;;21.17;;
63112;SDS011;49206;48.020;21.378;2022-12-16T00:58:28;49.55;;;21.85;;
63112;SDS011;49206;48.020;21.378;2022-12-16T00:59:31;49.95;;;21.77;;
63112;SDS011;49206;48.020;21.378;2022-12-16T01:00:33;49.00;;;20.02;;
63112;SDS011;49206;48.020;21.378;2022-12-16T01:01:36;45.28;;;22.25;;
63112;SDS011;49206;48.020;21.378;2022-12-16T01:02:39;51.25;;;22.70;;
63112;SDS011;49206;48.020;21.378;2022-12-16T01:03:46;47.13;;;22.52;;
63112;SDS011;49206;48.020;21.378;2022-12-16T01:04:49;49.65;;;21.33;;
63112;SDS011;49206;48.020;21.378;2022-12-16T01:05:52;50.55;;;22.42;;
63112;SDS011;49206;48.020;21.378;2022-12-16T01:06:56;46.38;;;20.85;;
63112;SDS011;49206;48.020;21.378;2022-12-16T01:07:58;45.85;;;22.65;;
63112;SDS011;49206;48.020;21.378;2022-12-16T01:09:04;47.65;;;21.95;;
63112;SDS011;49206;48.020;21.378;2022-12-16T01:10:06;47.42;;;23.38;;
63112;SDS011;49206;48.020;21.378;2022-12-16T01:11:10;46.67;;;21.10;;
63112;SDS011;49206;48.020;21.378;2022-12-16T01:12:13;51.40;;;22.45;;
63112;SDS011;49206;48.020;21.378;2022-12-16T01:13:15;53.13;;;23.88;;
63112;SDS011;49206;48.020;21.378;2022-12-16T01:14:18;52.60;;;23.25;;
63112;SDS011;49206;48.020;21.378;2022-12-16T01:15:20;53.30;;;23.98;;
63112;SDS011;49206;48.020;21.378;2022-12-16T01:16:23;50.35;;;22.27;;
63112;SDS011;49206;48.020;21.378;2022-12-16T01:17:25;58.92;;;23.45;;
63112;SDS011;49206;48.020;21.378;2022-12-16T01:18:28;46.10;;;22.08;;
63112;SDS011;49206;48.020;21.378;2022-12-16T01:19:30;42.97;;;22.15;;
63112;SDS011;49206;48.020;21.378;2022-12-16T01:20:33;47.88;;;22.10;;
63112;SDS011;49206;48.020;21.378;2022-12-16T01:21:35;47.58;;;21.27;;
63112;SDS011;49206;48.020;21.378;2022-12-16T01:22:38;47.85;;;20.85;;
63112;SDS011;49206;48.020;21.378;2022-12-16T01:23:41;54.38;;;23.48;;
63112;SDS011;49206;48.020;21.378;2022-12-16T01:24:44;47.35;;;20.65;;
63112;SDS011;49206;48.020;21.378;2022-12-16T01:25:47;44.90;;;22.88;;
63112;SDS011;49206;48.020;21.378;2022-12-16T01:26:56;43.72;;;21.50;;
63112;SDS011;49206;48.020;21.378;2022-12-16T01:27:58;45.05;;;20.92;;
63112;SDS011;49206;48.020;21.378;2022-12-16T01:29:01;49.28;;;22.17;;
63112;SDS011;49206;48.020;21.378;2022-12-16T01:30:04;46.17;;;20.48;;
63112;SDS011;49206;48.020;21.378;2022-12-16T01:31:07;46.72;;;20.67;;
63112;SDS011;49206;48.020;21.378;2022-12-16T01:32:12;48.17;;;22.00;;
63112;SDS011;49206;48.020;21.378;2022-12-16T01:33:16;47.60;;;21.60;;
63112;SDS011;49206;48.020;21.378;2022-12-16T01:34:26;45.88;;;21.90;;
63112;SDS011;49206;48.020;21.378;2022-12-16T01:35:28;53.05;;;23.10;;
63112;SDS011;49206;48.020;21.378;2022-12-16T01:36:51;44.28;;;20.30;;
63112;SDS011;49206;48.020;21.378;2022-12-16T01:37:53;45.65;;;21.85;;
63112;SDS011;49206;48.020;21.378;2022-12-16T01:38:56;46.00;;;23.02;;
63112;SDS011;49206;48.020;21.378;2022-12-16T01:39:58;47.25;;;22.58;;
63112;SDS011;49206;48.020;21.378;2022-12-16T01:41:01;46.25;;;21.58;;
63112;SDS011;49206;48.020;21.378;2022-12-16T01:42:18;47.88;;;22.92;;
63112;SDS011;49206;48.020;21.378;2022-12-16T01:43:28;49.67;;;22.95;;
63112;SDS011;49206;48.020;21.378;2022-12-16T01:44:33;50.70;;;21.25;;
63112;SDS011;49206;48.020;21.378;2022-12-16T01:45:36;49.25;;;20.80;;
63112;SDS011;49206;48.020;21.378;2022-12-16T01:46:38;53.38;;;21.95;;
63112;SDS011;49206;48.020;21.378;2022-12-16T01:47:42;47.35;;;19.95;;
63112;SDS011;49206;48.020;21.378;2022-12-16T01:48:53;50.15;;;21.13;;
63112;SDS011;49206;48.020;21.378;2022-12-16T01:50:04;46.30;;;22.65;;
63112;SDS011;49206;48.020;21.378;2022-12-16T01:51:18;47.67;;;20.98;;
63112;SDS011;49206;48.020;21.378;2022-12-16T01:52:27;48.63;;;21.85;;
63112;SDS011;49206;48.020;21.378;2022-12-16T01:53:33;50.20;;;21.95;;
63112;SDS011;49206;48.020;21.378;2022-12-16T01:54:44;50.78;;;22.25;;
63112;SDS011;49206;48.020;21.378;2022-12-16T01:55:55;45.55;;;20.70;;
63112;SDS011;49206;48.020;21.378;2022-12-16T01:57:01;44.40;;;22.20;;
63112;SDS011;49206;48.020;21.378;2022-12-16T01:58:15;44.05;;;22.10;;
63112;SDS011;49206;48.020;21.378;2022-12-16T01:59:22;43.00;;;21.88;;
63112;SDS011;49206;48.020;21.378;2022-12-16T02:00:28;42.70;;;21.65;;
63112;SDS011;49206;48.020;21.378;2022-12-16T02:01:30;44.13;;;21.20;;
63112;SDS011;49206;48.020;21.378;2022-12-16T02:02:36;46.63;;;21.38;;
63112;SDS011;49206;48.020;21.378;2022-12-16T02:03:39;51.92;;;21.40;;
63112;SDS011;49206;48.020;21.378;2022-12-16T02:04:43;44.47;;;21.10;;
63112;SDS011;49206;48.020;21.378;2022-12-16T02:06:21;46.15;;;20.17;;
63112;SDS011;49206;48.020;21.378;2022-12-16T02:07:23;42.65;;;21.33;;
63112;SDS011;49206;48.020;21.378;2022-12-16T02:08:26;45.85;;;20.77;;
63112;SDS011;49206;48.020;21.378;2022-12-16T02:09:28;44.45;;;22.13;;
63112;SDS011;49206;48.020;21.378;2022-12-16T02:10:38;50.33;;;23.20;;
63112;SDS011;49206;48.020;21.378;2022-12-16T02:15:44;43.60;;;21.85;;
63112;SDS011;49206;48.020;21.378;2022-12-16T02:17:00;42.88;;;19.35;;
63112;SDS011;49206;48.020;21.378;2022-12-16T02:21:56;46.10;;;21.88;;
63112;SDS011;49206;48.020;21.378;2022-12-16T02:23:15;44.00;;;22.02;;
63112;SDS011;49206;48.020;21.378;2022-12-16T02:25:58;43.25;;;19.85;;
63112;SDS011;49206;48.020;21.378;2022-12-16T02:35:39;51.25;;;22.33;;
63112;SDS011;49206;48.020;21.378;2022-12-16T02:36:59;46.40;;;21.33;;
63112;SDS011;49206;48.020;21.378;2022-12-16T02:39:36;45.38;;;19.02;;
63112;SDS011;49206;48.020;21.378;2022-12-16T02:40:51;46.40;;;22.05;;
63112;SDS011;49206;48.020;21.378;2022-12-16T02:42:14;45.92;;;21.92;;
63112;SDS011;49206;48.020;21.378;2022-12-16T02:43:33;46.00;;;21.70;;
63112;SDS011;49206;48.020;21.378;2022-12-16T02:45:53;47.70;;;21.20;;
63112;SDS011;49206;48.020;21.378;2022-12-16T02:46:56;45.63;;;22.15;;
63112;SDS011;49206;48.020;21.378;2022-12-16T02:47:58;42.83;;;20.83;;
63112;SDS011;49206;48.020;21.378;2022-12-16T02:49:08;47.88;;;22.67;;
63112;SDS011;49206;48.020;21.378;2022-12-16T02:51:04;43.00;;;21.88;;
63112;SDS011;49206;48.020;21.378;2022-12-16T02:51:59;45.30;;;20.27;;
63112;SDS011;49206;48.020;21.378;2022-12-16T02:53:03;46.45;;;20.42;;
63112;SDS011;49206;48.020;21.378;2022-12-16T02:54:06;42.13;;;20.52;;
63112;SDS011;49206;48.020;21.378;2022-12-16T02:55:10;41.83;;;20.42;;
63112;SDS011;49206;48.020;21.378;2022-12-16T02:59:07;39.90;;;20.45;;
63112;SDS011;49206;48.020;21.378;2022-12-16T03:00:12;40.35;;;20.30;;
63112;SDS011;49206;48.020;21.378;2022-12-16T03:04:02;42.10;;;19.85;;
63112;SDS011;49206;48.020;21.378;2022-12-16T03:05:20;38.35;;;19.17;;
63112;SDS011;49206;48.020;21.378;2022-12-16T03:06:35;41.85;;;21.90;;
63112;SDS011;49206;48.020;21.378;2022-12-16T03:07:41;42.75;;;21.58;;
63112;SDS011;49206;48.020;21.378;2022-12-16T03:08:49;45.47;;;21.52;;
63112;SDS011;49206;48.020;21.378;2022-12-16T03:09:55;47.35;;;22.48;;
63112;SDS011;49206;48.020;21.378;2022-12-16T03:11:00;43.47;;;21.85;;
63112;SDS011;49206;48.020;21.378;2022-12-16T03:12:08;40.55;;;20.65;;
63112;SDS011;49206;48.020;21.378;2022-12-16T03:13:15;38.72;;;20.75;;
63112;SDS011;49206;48.020;21.378;2022-12-16T03:14:21;40.20;;;20.15;;
63112;SDS011;49206;48.020;21.378;2022-12-16T03:15:26;40.90;;;20.98;;
63112;SDS011;49206;48.020;21.378;2022-12-16T03:16:33;42.35;;;20.58;;
63112;SDS011;49206;48.020;21.378;2022-12-16T03:17:36;47.50;;;21.42;;
63112;SDS011;49206;48.020;21.378;2022-12-16T03:18:41;43.05;;;21.20;;
63112;SDS011;49206;48.020;21.378;2022-12-16T03:19:48;42.67;;;21.58;;
63112;SDS011;49206;48.020;21.378;2022-12-16T03:21:05;43.50;;;20.83;;
63112;SDS011;49206;48.020;21.378;2022-12-16T03:22:13;42.03;;;20.88;;
63112;SDS011;49206;48.020;21.378;2022-12-16T03:23:27;39.67;;;20.52;;
63112;SDS011;49206;48.020;21.378;2022-12-16T03:24:35;41.05;;;19.58;;
63112;SDS011;49206;48.020;21.378;2022-12-16T03:25:37;45.92;;;22.88;;
63112;SDS011;49206;48.020;21.378;2022-12-16T03:28:27;39.10;;;20.23;;
63112;SDS011;49206;48.020;21.378;2022-12-16T03:29:52;33.03;;;19.23;;
63112;SDS011;49206;48.020;21.378;2022-12-16T03:31:06;42.85;;;21.70;;
63112;SDS011;49206;48.020;21.378;2022-12-16T03:33:06;38.58;;;19.52;;
63112;SDS011;49206;48.020;21.378;2022-12-16T03:33:51;42.97;;;22.23;;
63112;SDS011;49206;48.020;21.378;2022-12-16T03:35:24;40.88;;;19.55;;
63112;SDS011;49206;48.020;21.378;2022-12-16T03:36:25;45.53;;;21.88;;
63112;SDS011;49206;48.020;21.378;2022-12-16T03:37:30;42.15;;;19.63;;
63112;SDS011;49206;48.020;21.378;2022-12-16T03:38:35;43.50;;;21.13;;
63112;SDS011;49206;48.020;21.378;2022-12-16T03:39:51;36.22;;;19.55;;
63112;SDS011;49206;48.020;21.378;2022-12-16T03:40:56;39.45;;;20.67;;
63112;SDS011;49206;48.020;21.378;2022-12-16T03:42:01;46.17;;;21.80;;
63112;SDS011;49206;48.020;21.378;2022-12-16T03:43:04;39.92;;;21.13;;
63112;SDS011;49206;48.020;21.378;2022-12-16T03:44:08;43.65;;;22.50;;
63112;SDS011;49206;48.020;21.378;2022-12-16T03:45:14;40.83;;;20.63;;
63112;SDS011;49206;48.020;21.378;2022-12-16T03:46:20;45.88;;;22.38;;
63112;SDS011;49206;48.020;21.378;2022-12-16T03:47:24;41.95;;;21.80;;
63112;SDS011;49206;48.020;21.378;2022-12-16T03:48:30;43.60;;;22.35;;
63112;SDS011;49206;48.020;21.378;2022-12-16T03:49:33;43.42;;;21.10;;
63112;SDS011;49206;48.020;21.378;2022-12-16T03:50:36;40.53;;;21.45;;
63112;SDS011;49206;48.020;21.378;2022-12-16T03:51:40;44.45;;;20.15;;
63112;SDS011;49206;48.020;21.378;2022-12-16T03:52:43;43.20;;;21.00;;
63112;SDS011;49206;48.020;21.378;2022-12-16T03:53:45;40.40;;;21.00;;
63112;SDS011;49206;48.020;21.378;2022-12-16T03:54:51;41.90;;;20.52;;
63112;SDS011;49206;48.020;21.378;2022-12-16T03:55:54;45.90;;;22.75;;
63112;SDS011;49206;48.020;21.378;2022-12-16T03:56:57;44.08;;;23.77;;
63112;SDS011;49206;48.020;21.378;2022-12-16T03:57:59;40.25;;;21.80;;
63112;SDS011;49206;48.020;21.378;2022-12-16T03:59:02;43.90;;;20.98;;
63112;SDS011;49206;48.020;21.378;2022-12-16T04:00:05;41.58;;;20.10;;
63112;SDS011;49206;48.020;21.378;2022-12-16T04:01:12;41.33;;;23.60;;
63112;SDS011;49206;48.020;21.378;2022-12-16T04:02:15;40.72;;;20.70;;
63112;SDS011;49206;48.020;21.378;2022-12-16T04:03:17;45.00;;;22.98;;
63112;SDS011;49206;48.020;21.378;2022-12-16T04:04:24;41.90;;;23.05;;
63112;SDS011;49206;48.020;21.378;2022-12-16T04:05:26;45.25;;;24.05;;
63112;SDS011;49206;48.020;21.378;2022-12-16T04:06:28;43.83;;;22.42;;
63112;SDS011;49206;48.020;21.378;2022-12-16T04:07:31;44.00;;;23.40;;
63112;SDS011;49206;48.020;21.378;2022-12-16T04:08:33;44.50;;;23.52;;
63112;SDS011;49206;48.020;21.378;2022-12-16T04:09:36;41.95;;;22.80;;
63112;SDS011;49206;48.020;21.378;2022-12-16T04:10:39;36.17;;;20.85;;
63112;SDS011;49206;48.020;21.378;2022-12-16T04:12:00;40.13;;;21.70;;
63112;SDS011;49206;48.020;21.378;2022-12-16T04:13:21;40.60;;;20.10;;
63112;SDS011;49206;48.020;21.378;2022-12-16T04:14:42;38.40;;;20.67;;
63112;SDS011;49206;48.020;21.378;2022-12-16T04:16:04;37.60;;;21.23;;
63112;SDS011;49206;48.020;21.378;2022-12-16T04:17:25;38.33;;;21.48;;
63112;SDS011;49206;48.020;21.378;2022-12-16T04:18:46;40.28;;;19.95;;
63112;SDS011;49206;48.020;21.378;2022-12-16T04:20:12;33.15;;;18.25;;
63112;SDS011;49206;48.020;21.378;2022-12-16T04:21:36;40.00;;;19.08;;
63112;SDS011;49206;48.020;21.378;2022-12-16T04:22:57;38.28;;;19.65;;
63112;SDS011;49206;48.020;21.378;2022-12-16T04:24:18;34.55;;;19.35;;
63112;SDS011;49206;48.020;21.378;2022-12-16T04:25:27;37.30;;;18.40;;
63112;SDS011;49206;48.020;21.378;2022-12-16T04:26:32;39.08;;;20.85;;
63112;SDS011;49206;48.020;21.378;2022-12-16T04:27:57;34.28;;;17.88;;
63112;SDS011;49206;48.020;21.378;2022-12-16T04:29:00;36.00;;;21.80;;
63112;SDS011;49206;48.020;21.378;2022-12-16T04:30:03;42.55;;;22.05;;
63112;SDS011;49206;48.020;21.378;2022-12-16T04:31:21;38.22;;;21.45;;
63112;SDS011;49206;48.020;21.378;2022-12-16T04:32:23;37.80;;;21.23;;
63112;SDS011;49206;48.020;21.378;2022-12-16T04:33:28;39.63;;;20.73;;
63112;SDS011;49206;48.020;21.378;2022-12-16T04:34:49;40.50;;;19.52;;
63112;SDS011;49206;48.020;21.378;2022-12-16T04:35:53;40.72;;;21.17;;
63112;SDS011;49206;48.020;21.378;2022-12-16T04:37:13;32.67;;;17.60;;
63112;SDS011;49206;48.020;21.378;2022-12-16T04:38:35;39.05;;;22.27;;
63112;SDS011;49206;48.020;21.378;2022-12-16T04:39:56;36.63;;;20.73;;
63112;SDS011;49206;48.020;21.378;2022-12-16T04:41:18;39.17;;;19.83;;
63112;SDS011;49206;48.020;21.378;2022-12-16T04:42:39;35.55;;;20.65;;
63112;SDS011;49206;48.020;21.378;2022-12-16T04:44:00;33.17;;;18.50;;
63112;SDS011;49206;48.020;21.378;2022-12-16T04:45:22;36.38;;;19.88;;
63112;SDS011;49206;48.020;21.378;2022-12-16T04:46:43;37.88;;;21.80;;
63112;SDS011;49206;48.020;21.378;2022-12-16T04:48:05;60.85;;;28.30;;
63112;SDS011;49206;48.020;21.378;2022-12-16T04:49:26;53.15;;;31.20;;
63112;SDS011;49206;48.020;21.378;2022-12-16T04:50:48;54.08;;;31.10;;
63112;SDS011;49206;48.020;21.378;2022-12-16T04:52:10;50.00;;;25.02;;
63112;SDS011;49206;48.020;21.378;2022-12-16T04:53:31;44.75;;;23.38;;
63112;SDS011;49206;48.020;21.378;2022-12-16T04:54:52;51.90;;;28.55;;
63112;SDS011;49206;48.020;21.378;2022-12-16T04:56:13;59.95;;;33.13;;
63112;SDS011;49206;48.020;21.378;2022-12-16T04:57:34;81.15;;;40.83;;
63112;SDS011;49206;48.020;21.378;2022-12-16T04:58:56;41.03;;;21.85;;
63112;SDS011;49206;48.020;21.378;2022-12-16T05:00:16;46.92;;;24.38;;
63112;SDS011;49206;48.020;21.378;2022-12-16T05:01:38;63.55;;;33.95;;
63112;SDS011;49206;48.020;21.378;2022-12-16T05:02:59;50.72;;;28.35;;
63112;SDS011;49206;48.020;21.378;2022-12-16T05:04:20;39.45;;;22.42;;
63112;SDS011;49206;48.020;21.378;2022-12-16T05:05:41;35.08;;;21.80;;
63112;SDS011;49206;48.020;21.378;2022-12-16T05:07:02;37.88;;;20.27;;
63112;SDS011;49206;48.020;21.378;2022-12-16T05:08:24;33.85;;;20.60;;
63112;SDS011;49206;48.020;21.378;2022-12-16T05:09:46;31.92;;;19.90;;
63112;SDS011;49206;48.020;21.378;2022-12-16T05:11:06;34.00;;;19.83;;
63112;SDS011;49206;48.020;21.378;2022-12-16T05:12:27;30.08;;;18.25;;
63112;SDS011;49206;48.020;21.378;2022-12-16T05:13:48;33.53;;;19.08;;
63112;SDS011;49206;48.020;21.378;2022-12-16T05:15:09;40.50;;;21.27;;
63112;SDS011;49206;48.020;21.378;2022-12-16T05:16:30;34.00;;;18.80;;
63112;SDS011;49206;48.020;21.378;2022-12-16T05:17:52;50.45;;;27.02;;
63112;SDS011;49206;48.020;21.378;2022-12-16T05:19:13;36.08;;;21.17;;
63112;SDS011;49206;48.020;21.378;2022-12-16T05:20:34;41.75;;;24.13;;
63112;SDS011;49206;48.020;21.378;2022-12-16T05:21:56;35.00;;;21.48;;
63112;SDS011;49206;48.020;21.378;2022-12-16T05:23:17;36.25;;;20.77;;
63112;SDS011;49206;48.020;21.378;2022-12-16T05:24:38;36.92;;;19.35;;
63112;SDS011;49206;48.020;21.378;2022-12-16T05:25:59;36.58;;;19.02;;
63112;SDS011;49206;48.020;21.378;2022-12-16T05:27:21;32.60;;;17.73;;
63112;SDS011;49206;48.020;21.378;2022-12-16T05:28:42;29.98;;;16.58;;
63112;SDS011;49206;48.020;21.378;2022-12-16T05:30:04;29.15;;;16.50;;
63112;SDS011;49206;48.020;21.378;2022-12-16T05:31:32;34.10;;;18.65;;
63112;SDS011;49206;48.020;21.378;2022-12-16T05:32:53;37.40;;;19.95;;
63112;SDS011;49206;48.020;21.378;2022-12-16T05:34:15;35.28;;;19.60;;
63112;SDS011;49206;48.020;21.378;2022-12-16T05:35:36;32.92;;;19.17;;
63112;SDS011;49206;48.020;21.378;2022-12-16T05:36:58;31.88;;;17.00;;
63112;SDS011;49206;48.020;21.378;2022-12-16T05:38:20;33.20;;;17.40;;
63112;SDS011;49206;48.020;21.378;2022-12-16T05:39:41;32.42;;;18.42;;
63112;SDS011;49206;48.020;21.378;2022-12-16T05:41:03;35.40;;;18.88;;
63112;SDS011;49206;48.020;21.378;2022-12-16T05:42:25;33.58;;;18.67;;
63112;SDS011;49206;48.020;21.378;2022-12-16T05:43:45;35.17;;;19.85;;
63112;SDS011;49206;48.020;21.378;2022-12-16T05:45:08;27.38;;;16.45;;
63112;SDS011;49206;48.020;21.378;2022-12-16T05:46:29;31.02;;;17.52;;
63112;SDS011;49206;48.020;21.378;2022-12-16T05:47:52;32.05;;;18.08;;
63112;SDS011;49206;48.020;21.378;2022-12-16T05:49:19;33.25;;;18.83;;
63112;SDS011;49206;48.020;21.378;2022-12-16T05:50:40;33.50;;;17.58;;
63112;SDS011;49206;48.020;21.378;2022-12-16T05:52:01;35.22;;;18.45;;
63112;SDS011;49206;48.020;21.378;2022-12-16T05:53:23;29.25;;;15.68;;
63112;SDS011;49206;48.020;21.378;2022-12-16T05:54:44;34.28;;;18.60;;
63112;SDS011;49206;48.020;21.378;2022-12-16T05:56:05;30.38;;;17.90;;
63112;SDS011;49206;48.020;21.378;2022-12-16T05:57:26;29.77;;;17.40;;
63112;SDS011;49206;48.020;21.378;2022-12-16T05:58:50;34.50;;;18.55;;
63112;SDS011;49206;48.020;21.378;2022-12-16T06:00:12;30.20;;;17.55;;
63112;SDS011;49206;48.020;21.378;2022-12-16T06:01:33;35.70;;;19.50;;
63112;SDS011;49206;48.020;21.378;2022-12-16T06:02:54;28.58;;;16.92;;
63112;SDS011;49206;48.020;21.378;2022-12-16T06:04:15;35.95;;;18.55;;
63112;SDS011;49206;48.020;21.378;2022-12-16T06:06:59;34.00;;;16.40;;
63112;SDS011;49206;48.020;21.378;2022-12-16T06:08:21;29.48;;;15.98;;
63112;SDS011;49206;48.020;21.378;2022-12-16T06:09:42;33.65;;;17.80;;
63112;SDS011;49206;48.020;21.378;2022-12-16T06:11:03;29.73;;;16.10;;
63112;SDS011;49206;48.020;21.378;2022-12-16T06:12:26;28.60;;;17.17;;
63112;SDS011;49206;48.020;21.378;2022-12-16T06:13:59;31.38;;;16.40;;
63112;SDS011;49206;48.020;21.378;2022-12-16T06:15:19;31.42;;;16.63;;
63112;SDS011;49206;48.020;21.378;2022-12-16T06:16:41;30.58;;;15.85;;
63112;SDS011;49206;48.020;21.378;2022-12-16T06:18:02;28.90;;;15.88;;
63112;SDS011;49206;48.020;21.378;2022-12-16T06:19:23;33.42;;;16.98;;
63112;SDS011;49206;48.020;21.378;2022-12-16T06:20:44;33.30;;;18.10;;
63112;SDS011;49206;48.020;21.378;2022-12-16T06:22:05;33.33;;;18.38;;
63112;SDS011;49206;48.020;21.378;2022-12-16T06:23:25;32.13;;;16.92;;
63112;SDS011;49206;48.020;21.378;2022-12-16T06:24:47;29.25;;;15.90;;
63112;SDS011;49206;48.020;21.378;2022-12-16T06:26:08;34.72;;;19.17;;
63112;SDS011;49206;48.020;21.378;2022-12-16T06:27:30;32.30;;;18.13;;
63112;SDS011;49206;48.020;21.378;2022-12-16T06:28:51;33.53;;;20.35;;
63112;SDS011;49206;48.020;21.378;2022-12-16T06:30:12;36.40;;;18.85;;
63112;SDS011;49206;48.020;21.378;2022-12-16T06:31:33;38.65;;;21.15;;
63112;SDS011;49206;48.020;21.378;2022-12-16T06:32:54;35.72;;;19.08;;
63112;SDS011;49206;48.020;21.378;2022-12-16T06:34:15;35.13;;;19.75;;
63112;SDS011;49206;48.020;21.378;2022-12-16T06:35:43;37.83;;;21.05;;
63112;SDS011;49206;48.020;21.378;2022-12-16T06:37:04;37.60;;;20.67;;
63112;SDS011;49206;48.020;21.378;2022-12-16T06:38:26;40.63;;;22.70;;
63112;SDS011;49206;48.020;21.378;2022-12-16T06:39:47;45.15;;;25.42;;
63112;SDS011;49206;48.020;21.378;2022-12-16T06:41:08;42.50;;;24.80;;
63112;SDS011;49206;48.020;21.378;2022-12-16T06:42:30;41.75;;;24.23;;
63112;SDS011;49206;48.020;21.378;2022-12-16T06:43:51;42.22;;;22.23;;
63112;SDS011;49206;48.020;21.378;2022-12-16T06:45:11;42.10;;;23.58;;
63112;SDS011;49206;48.020;21.378;2022-12-16T06:46:36;42.70;;;21.33;;
63112;SDS011;49206;48.020;21.378;2022-12-16T06:47:56;57.58;;;28.08;;
63112;SDS011;49206;48.020;21.378;2022-12-16T06:49:18;57.75;;;29.52;;
63112;SDS011;49206;48.020;21.378;2022-12-16T06:50:39;59.97;;;29.30;;
63112;SDS011;49206;48.020;21.378;2022-12-16T06:52:00;64.15;;;30.98;;
63112;SDS011;49206;48.020;21.378;2022-12-16T06:53:21;50.00;;;24.10;;
63112;SDS011;49206;48.020;21.378;2022-12-16T06:54:42;47.42;;;22.55;;
63112;SDS011;49206;48.020;21.378;2022-12-16T06:56:03;46.53;;;24.40;;
63112;SDS011;49206;48.020;21.378;2022-12-16T06:57:25;36.05;;;18.25;;
63112;SDS011;49206;48.020;21.378;2022-12-16T06:58:46;35.90;;;20.00;;
63112;SDS011;49206;48.020;21.378;2022-12-16T07:00:07;39.70;;;20.98;;
63112;SDS011;49206;48.020;21.378;2022-12-16T07:01:29;36.33;;;18.33;;
63112;SDS011;49206;48.020;21.378;2022-12-16T07:02:50;35.97;;;17.95;;
63112;SDS011;49206;48.020;21.378;2022-12-16T07:04:12;34.83;;;19.10;;
63112;SDS011;49206;48.020;21.378;2022-12-16T07:05:33;32.28;;;17.65;;
63112;SDS011;49206;48.020;21.378;2022-12-16T07:06:54;35.47;;;19.85;;
63112;SDS011;49206;48.020;21.378;2022-12-16T07:08:15;34.15;;;18.05;;
63112;SDS011;49206;48.020;21.378;2022-12-16T07:09:36;38.05;;;20.40;;
63112;SDS011;49206;48.020;21.378;2022-12-16T07:10:57;35.63;;;21.15;;
63112;SDS011;49206;48.020;21.378;2022-12-16T07:12:20;36.63;;;18.27;;
63112;SDS011;49206;48.020;21.378;2022-12-16T07:13:41;43.05;;;20.60;;
63112;SDS011;49206;48.020;21.378;2022-12-16T07:15:02;42.47;;;22.38;;
63112;SDS011;49206;48.020;21.378;2022-12-16T07:16:23;43.95;;;22.60;;
63112;SDS011;49206;48.020;21.378;2022-12-16T07:17:45;44.08;;;21.83;;
63112;SDS011;49206;48.020;21.378;2022-12-16T07:19:07;42.20;;;20.70;;
63112;SDS011;49206;48.020;21.378;2022-12-16T07:20:28;42.45;;;21.05;;
63112;SDS011;49206;48.020;21.378;2022-12-16T07:21:49;34.78;;;17.70;;
63112;SDS011;49206;48.020;21.378;2022-12-16T07:23:10;37.78;;;18.83;;
63112;SDS011;49206;48.020;21.378;2022-12-16T07:24:32;37.60;;;18.25;;